createdAt,value
2023-10-05T00:02:12.695Z,16.20
2023-10-05T00:04:45.483Z,16.10
2023-10-05T00:07:29.325Z,16.00
2023-10-05T00:09:58.445Z,15.90
2023-10-05T00:12:25.731Z,15.90
2023-10-05T00:15:17.313Z,15.80
2023-10-05T00:17:44.398Z,15.80
2023-10-05T00:20:25.670Z,15.70
2023-10-05T00:22:52.852Z,15.70
2023-10-05T00:25:21.405Z,15.70
2023-10-05T00:27:52.766Z,15.60
2023-10-05T00:30:20.105Z,15.60
2023-10-05T00:32:53.273Z,15.60
2023-10-05T00:35:33.443Z,15.60
2023-10-05T00:38:17.608Z,15.60
2023-10-05T00:40:57.244Z,15.50
2023-10-05T00:43:24.286Z,15.50
2023-10-05T00:45:52.210Z,15.50
2023-10-05T00:48:40.284Z,15.50
2023-10-05T00:51:24.698Z,15.40
2023-10-05T00:53:53.506Z,15.40
2023-10-05T00:56:24.433Z,15.40
2023-10-05T00:59:07.116Z,15.40
2023-10-05T01:01:55.000Z,15.40
2023-10-05T01:04:41.727Z,15.50
2023-10-05T01:07:24.611Z,15.50
2023-10-05T01:10:01.950Z,15.50
2023-10-05T01:12:37.920Z,15.60
2023-10-05T01:15:12.223Z,15.60
2023-10-05T01:17:40.528Z,15.50
2023-10-05T01:20:20.220Z,15.50
2023-10-05T01:22:47.878Z,15.50
2023-10-05T01:25:15.986Z,15.50
2023-10-05T01:27:50.406Z,15.50
2023-10-05T01:30:17.521Z,15.50
2023-10-05T01:32:46.244Z,15.50
2023-10-05T01:35:15.779Z,15.50
2023-10-05T01:37:45.070Z,15.40
2023-10-05T01:40:22.032Z,15.40
2023-10-05T01:42:50.161Z,15.40
2023-10-05T01:45:20.765Z,15.30
2023-10-05T01:47:47.853Z,15.30
2023-10-05T01:50:23.615Z,15.30
2023-10-05T01:53:17.891Z,15.30
2023-10-05T01:55:48.856Z,15.30
2023-10-05T01:58:28.317Z,15.20
2023-10-05T02:00:55.839Z,15.20
2023-10-05T02:03:26.434Z,15.30
2023-10-05T02:05:59.709Z,15.30
2023-10-05T02:08:28.698Z,15.30
2023-10-05T02:10:55.618Z,15.30
2023-10-05T02:13:24.640Z,15.30
2023-10-05T02:16:00.068Z,15.30
2023-10-05T02:18:31.982Z,15.30
2023-10-05T02:21:07.472Z,15.30
2023-10-05T02:23:43.636Z,15.30
2023-10-05T02:26:33.176Z,15.30
2023-10-05T02:29:00.159Z,15.30
2023-10-05T02:31:30.362Z,15.30
2023-10-05T02:33:57.535Z,15.30
2023-10-05T02:36:31.677Z,15.30
2023-10-05T02:39:02.105Z,15.30
2023-10-05T02:41:39.446Z,15.30
2023-10-05T02:44:18.295Z,15.30
2023-10-05T02:46:48.868Z,15.30
2023-10-05T02:49:17.225Z,15.30
2023-10-05T02:51:47.645Z,15.30
2023-10-05T02:54:15.978Z,15.30
2023-10-05T02:56:43.033Z,15.20
2023-10-05T02:59:15.865Z,15.20
2023-10-05T03:01:46.125Z,15.20
2023-10-05T03:04:13.009Z,15.30
2023-10-05T03:06:40.624Z,15.20
2023-10-05T03:09:11.098Z,15.20
2023-10-05T03:11:43.664Z,15.20
2023-10-05T03:14:11.722Z,15.10
2023-10-05T03:16:48.947Z,15.10
2023-10-05T03:19:24.546Z,15.10
2023-10-05T03:21:59.495Z,15.00
2023-10-05T03:24:26.924Z,15.00
2023-10-05T03:26:55.421Z,15.00
2023-10-05T03:29:23.586Z,15.00
2023-10-05T03:31:55.565Z,14.90
2023-10-05T03:34:27.791Z,14.90
2023-10-05T03:36:55.788Z,14.90
2023-10-05T03:39:29.389Z,14.80
2023-10-05T03:41:56.746Z,14.80
2023-10-05T03:44:25.556Z,14.80
2023-10-05T03:46:53.395Z,14.80
2023-10-05T03:49:25.325Z,14.70
2023-10-05T03:51:52.999Z,14.70
2023-10-05T03:54:25.859Z,14.70
2023-10-05T03:57:11.625Z,14.60
2023-10-05T03:59:41.145Z,14.60
2023-10-05T04:02:08.412Z,14.60
2023-10-05T04:04:38.705Z,14.60
2023-10-05T04:07:05.640Z,14.60
2023-10-05T04:09:34.427Z,14.60
2023-10-05T04:12:01.967Z,14.70
2023-10-05T04:14:29.923Z,14.80
2023-10-05T04:17:00.654Z,14.80
2023-10-05T04:19:27.499Z,14.80
2023-10-05T04:21:57.365Z,14.80
2023-10-05T04:24:24.228Z,14.80
2023-10-05T04:26:52.488Z,14.80
2023-10-05T04:29:22.235Z,14.80
2023-10-05T04:31:49.959Z,14.80
2023-10-05T04:34:19.774Z,14.80
2023-10-05T04:36:49.698Z,14.80
2023-10-05T04:39:30.774Z,14.80
2023-10-05T04:42:05.867Z,14.80
2023-10-05T04:44:32.900Z,14.80
2023-10-05T04:46:59.693Z,14.90
2023-10-05T04:49:28.404Z,14.90
2023-10-05T04:51:58.287Z,14.90
2023-10-05T04:54:27.110Z,14.90
2023-10-05T04:56:54.063Z,14.80
2023-10-05T04:59:37.209Z,14.80
2023-10-05T05:02:22.681Z,14.90
2023-10-05T05:04:52.798Z,14.90
2023-10-05T05:07:22.521Z,14.80
2023-10-05T05:09:51.793Z,14.80
2023-10-05T05:12:19.267Z,14.80
2023-10-05T05:14:47.461Z,14.80
2023-10-05T05:17:24.886Z,14.80
2023-10-05T05:19:54.881Z,14.70
2023-10-05T05:22:21.708Z,14.70
2023-10-05T05:24:51.339Z,14.70
2023-10-05T05:27:18.128Z,14.70
2023-10-05T05:29:45.525Z,14.70
2023-10-05T05:32:12.959Z,14.70
2023-10-05T05:34:42.574Z,14.70
2023-10-05T05:37:15.011Z,14.70
2023-10-05T05:39:42.070Z,14.70
2023-10-05T05:42:15.810Z,14.70
2023-10-05T05:44:43.094Z,14.60
2023-10-05T05:47:11.439Z,14.60
2023-10-05T05:49:41.898Z,14.50
2023-10-05T05:52:15.376Z,14.50
2023-10-05T05:54:43.739Z,14.50
2023-10-05T05:57:13.218Z,14.50
2023-10-05T05:59:40.751Z,14.60
2023-10-05T06:02:08.831Z,14.60
2023-10-05T06:04:40.749Z,14.70
2023-10-05T06:07:15.102Z,14.70
2023-10-05T06:10:15.811Z,14.80
2023-10-05T06:12:45.135Z,14.80
2023-10-05T06:15:14.720Z,14.90
2023-10-05T06:17:42.619Z,15.00
2023-10-05T06:20:15.473Z,15.10
2023-10-05T06:22:44.948Z,15.10
2023-10-05T06:25:16.527Z,15.20
2023-10-05T06:27:45.086Z,15.30
2023-10-05T06:30:12.766Z,15.30
2023-10-05T06:32:39.612Z,15.40
2023-10-05T06:35:09.238Z,15.40
2023-10-05T06:37:50.309Z,15.40
2023-10-05T06:40:22.655Z,15.50
2023-10-05T06:42:50.834Z,15.50
2023-10-05T06:45:20.555Z,15.50
2023-10-05T06:47:47.712Z,15.60
2023-10-05T06:50:14.716Z,15.60
2023-10-05T06:52:47.730Z,15.60
2023-10-05T06:55:18.676Z,15.70
2023-10-05T06:57:46.139Z,15.80
2023-10-05T07:00:21.241Z,15.80
2023-10-05T07:03:00.944Z,15.90
2023-10-05T07:05:30.933Z,16.00
2023-10-05T07:07:57.833Z,16.00
2023-10-05T07:10:25.237Z,16.10
2023-10-05T07:12:52.146Z,16.10
2023-10-05T07:15:20.448Z,16.20
2023-10-05T07:17:49.693Z,16.20
2023-10-05T07:20:17.985Z,16.30
2023-10-05T07:22:46.876Z,16.30
2023-10-05T07:25:18.859Z,16.40
2023-10-05T07:27:47.021Z,16.50
2023-10-05T07:30:14.266Z,16.60
2023-10-05T07:32:42.101Z,16.70
2023-10-05T07:35:14.373Z,16.70
2023-10-05T07:37:42.501Z,16.70
2023-10-05T07:40:10.260Z,16.80
2023-10-05T07:42:38.923Z,16.80
2023-10-05T07:45:09.375Z,16.90
2023-10-05T07:47:45.853Z,17.00
2023-10-05T07:50:14.245Z,17.10
2023-10-05T07:52:45.083Z,17.20
2023-10-05T07:55:12.237Z,17.20
2023-10-05T07:57:39.679Z,17.20
2023-10-05T08:00:12.372Z,17.30
2023-10-05T08:02:40.008Z,17.30
2023-10-05T08:05:07.546Z,17.40
2023-10-05T08:07:34.380Z,17.50
2023-10-05T08:10:01.520Z,17.60
2023-10-05T08:12:31.286Z,17.60
2023-10-05T08:15:01.274Z,17.70
2023-10-05T08:17:28.776Z,17.80
2023-10-05T08:19:58.060Z,17.90
2023-10-05T08:22:25.874Z,18.10
2023-10-05T08:24:54.049Z,18.20
2023-10-05T08:27:21.233Z,18.40
2023-10-05T08:29:48.566Z,18.70
2023-10-05T08:32:17.297Z,18.80
2023-10-05T08:34:46.334Z,19.20
2023-10-05T08:37:14.832Z,19.60
2023-10-05T08:39:42.313Z,20.70
2023-10-05T08:42:09.409Z,21.50
2023-10-05T08:44:40.454Z,21.80
2023-10-05T08:47:16.674Z,22.50
2023-10-05T08:49:44.516Z,23.10
2023-10-05T08:52:20.151Z,23.60
2023-10-05T08:54:52.757Z,24.20
2023-10-05T08:57:21.007Z,24.50
2023-10-05T08:59:48.395Z,24.40
2023-10-05T09:02:22.997Z,24.50
2023-10-05T09:05:08.581Z,25.10
2023-10-05T09:07:39.800Z,24.70
2023-10-05T09:10:09.872Z,24.50
2023-10-05T09:12:38.726Z,24.30
2023-10-05T09:15:27.720Z,23.80
2023-10-05T09:18:18.161Z,23.30
2023-10-05T09:20:49.818Z,22.80
2023-10-05T09:23:22.072Z,22.50
2023-10-05T09:25:49.607Z,22.70
2023-10-05T09:28:46.552Z,23.00
2023-10-05T09:31:15.971Z,23.10
2023-10-05T09:33:54.551Z,22.90
2023-10-05T09:36:23.399Z,22.80
2023-10-05T09:38:53.079Z,22.90
2023-10-05T09:41:21.334Z,23.00
2023-10-05T09:43:59.621Z,22.90
2023-10-05T09:46:30.797Z,22.80
2023-10-05T09:49:02.875Z,22.70
2023-10-05T09:51:30.651Z,22.50
2023-10-05T09:54:01.168Z,22.20
2023-10-05T09:56:41.404Z,22.00
2023-10-05T09:59:17.449Z,21.70
2023-10-05T10:01:48.388Z,21.50
2023-10-05T10:04:30.327Z,21.20
2023-10-05T10:06:59.944Z,21.10
2023-10-05T10:09:28.455Z,20.90
2023-10-05T10:12:01.006Z,20.80
2023-10-05T10:14:31.178Z,20.70
2023-10-05T10:17:02.214Z,20.70
2023-10-05T10:19:44.266Z,20.60
2023-10-05T10:22:13.435Z,20.60
2023-10-05T10:24:41.273Z,20.50
2023-10-05T10:27:12.688Z,20.50
2023-10-05T10:29:47.190Z,20.50
2023-10-05T10:32:21.127Z,20.50
2023-10-05T10:35:13.713Z,20.50
2023-10-05T10:37:43.960Z,20.50
2023-10-05T10:40:21.389Z,20.50
2023-10-05T10:42:54.691Z,20.60
2023-10-05T10:45:26.394Z,20.60
2023-10-05T10:47:59.981Z,20.70
2023-10-05T10:50:32.495Z,20.70
2023-10-05T10:53:00.306Z,20.80
2023-10-05T10:55:34.888Z,20.90
2023-10-05T10:58:05.261Z,21.10
2023-10-05T11:00:44.792Z,21.10
2023-10-05T11:03:13.436Z,21.10
2023-10-05T11:05:41.779Z,21.20
2023-10-05T11:08:10.591Z,21.30
2023-10-05T11:10:37.707Z,21.30
2023-10-05T11:13:29.784Z,21.30
2023-10-05T11:16:01.984Z,21.40
2023-10-05T11:18:42.409Z,21.40
2023-10-05T11:21:17.486Z,21.50
2023-10-05T11:23:48.797Z,21.50
2023-10-05T11:26:19.961Z,21.60
2023-10-05T11:28:51.046Z,21.70
2023-10-05T11:31:40.302Z,21.80
2023-10-05T11:35:10.006Z,21.90
2023-10-05T11:37:00.743Z,22.00
2023-10-05T11:39:28.641Z,22.10
2023-10-05T11:41:58.260Z,22.10
2023-10-05T11:44:25.976Z,22.00
2023-10-05T11:46:56.415Z,22.10
2023-10-05T11:49:33.965Z,22.20
2023-10-05T11:52:02.584Z,22.20
2023-10-05T11:54:32.256Z,22.30
2023-10-05T11:57:06.210Z,22.20
2023-10-05T11:59:37.042Z,22.10
2023-10-05T12:02:10.693Z,22.00
2023-10-05T12:04:41.418Z,22.00
2023-10-05T12:07:12.861Z,22.10
2023-10-05T12:09:44.221Z,22.20
2023-10-05T12:12:14.746Z,22.20
2023-10-05T12:14:42.348Z,22.30
2023-10-05T12:17:09.580Z,22.40
2023-10-05T12:19:36.853Z,22.40
2023-10-05T12:22:05.146Z,22.50
2023-10-05T12:24:32.140Z,22.40
2023-10-05T12:27:01.887Z,22.40
2023-10-05T12:29:29.241Z,22.50
2023-10-05T12:32:10.018Z,22.30
2023-10-05T12:34:37.450Z,22.30
2023-10-05T12:37:09.888Z,22.40
2023-10-05T12:39:37.306Z,22.50
2023-10-05T12:42:05.079Z,22.50
2023-10-05T12:44:33.905Z,22.40
2023-10-05T12:47:00.813Z,22.20
2023-10-05T12:49:28.421Z,22.20
2023-10-05T12:51:57.475Z,22.10
2023-10-05T12:54:30.370Z,22.00
2023-10-05T12:57:13.210Z,22.10
2023-10-05T12:59:45.171Z,22.10
2023-10-05T13:02:16.374Z,22.10
2023-10-05T13:04:43.792Z,22.00
2023-10-05T13:07:10.626Z,22.00
2023-10-05T13:09:39.530Z,22.10
2023-10-05T13:12:13.229Z,22.10
2023-10-05T13:14:40.991Z,22.10
2023-10-05T13:17:13.164Z,22.10
2023-10-05T13:19:41.009Z,22.10
2023-10-05T13:22:08.003Z,22.20
2023-10-05T13:24:35.215Z,22.20
2023-10-05T13:27:02.624Z,22.20
2023-10-05T13:29:29.768Z,22.20
2023-10-05T13:31:57.427Z,22.20
2023-10-05T13:34:29.256Z,22.20
2023-10-05T13:36:56.504Z,22.20
2023-10-05T13:39:23.448Z,22.30
2023-10-05T13:42:01.297Z,22.20
2023-10-05T13:44:29.195Z,22.00
2023-10-05T13:46:57.098Z,21.90
2023-10-05T13:49:30.113Z,21.70
2023-10-05T13:52:06.907Z,21.50
2023-10-05T13:54:36.439Z,21.30
2023-10-05T13:57:04.881Z,21.10
2023-10-05T13:59:32.387Z,21.00
2023-10-05T14:02:01.890Z,21.00
2023-10-05T14:04:31.403Z,21.00
2023-10-05T14:07:00.399Z,20.90
2023-10-05T14:09:30.185Z,20.90
2023-10-05T14:11:57.475Z,20.90
2023-10-05T14:14:24.202Z,20.80
2023-10-05T14:16:51.872Z,20.70
2023-10-05T14:19:20.756Z,20.70
2023-10-05T14:21:47.921Z,20.70
2023-10-05T14:24:18.359Z,20.70
2023-10-05T14:26:49.723Z,20.60
2023-10-05T14:29:20.845Z,20.70
2023-10-05T14:31:53.511Z,20.70
2023-10-05T14:34:22.271Z,20.60
2023-10-05T14:36:53.511Z,20.60
2023-10-05T14:39:22.588Z,20.60
2023-10-05T14:41:56.353Z,20.60
2023-10-05T14:44:25.710Z,20.60
2023-10-05T14:46:56.702Z,20.50
2023-10-05T14:49:23.790Z,20.40
2023-10-05T14:51:51.609Z,20.30
2023-10-05T14:54:23.311Z,20.20
2023-10-05T14:56:51.018Z,20.00
2023-10-05T14:59:20.334Z,19.90
2023-10-05T15:01:47.471Z,19.80
2023-10-05T15:04:14.544Z,19.80
2023-10-05T15:06:41.360Z,19.80
2023-10-05T15:09:08.546Z,19.80
2023-10-05T15:11:35.642Z,19.80
2023-10-05T15:14:03.645Z,19.70
2023-10-05T15:16:30.805Z,19.70
2023-10-05T15:18:57.616Z,19.70
2023-10-05T15:21:24.543Z,19.70
2023-10-05T15:23:51.243Z,19.70
2023-10-05T15:26:18.510Z,19.70
2023-10-05T15:28:45.490Z,19.70
2023-10-05T15:31:12.921Z,19.70
2023-10-05T15:33:41.113Z,19.70
2023-10-05T15:36:07.898Z,19.60
2023-10-05T15:38:37.427Z,19.60
2023-10-05T15:41:05.378Z,19.60
2023-10-05T15:43:33.115Z,19.50
2023-10-05T15:46:01.556Z,19.50
2023-10-05T15:48:28.994Z,19.40
2023-10-05T15:50:57.562Z,19.40
2023-10-05T15:53:24.633Z,19.40
2023-10-05T15:55:53.280Z,19.40
2023-10-05T15:58:20.406Z,19.40
2023-10-05T16:00:47.210Z,19.40
2023-10-05T16:03:15.526Z,19.40
2023-10-05T16:05:44.003Z,19.40
2023-10-05T16:08:11.634Z,19.40
2023-10-05T16:10:40.193Z,19.40
2023-10-05T16:13:11.884Z,19.40
2023-10-05T16:15:40.425Z,19.30
2023-10-05T16:18:09.123Z,19.30
2023-10-05T16:20:42.056Z,19.30
2023-10-05T16:23:11.872Z,19.30
2023-10-05T16:25:41.151Z,19.20
2023-10-05T16:28:09.302Z,19.20
2023-10-05T16:30:37.240Z,19.20
2023-10-05T16:33:06.781Z,19.20
2023-10-05T16:35:41.156Z,19.10
2023-10-05T16:38:09.746Z,19.10
2023-10-05T16:40:36.508Z,19.00
2023-10-05T16:43:03.485Z,19.00
2023-10-05T16:45:30.455Z,18.90
2023-10-05T16:47:57.185Z,18.80
2023-10-05T16:50:26.865Z,18.80
2023-10-05T16:52:55.362Z,18.80
2023-10-05T16:55:23.325Z,18.70
2023-10-05T16:57:52.649Z,18.70
2023-10-05T17:00:24.261Z,18.60
2023-10-05T17:02:53.026Z,18.60
2023-10-05T17:05:23.392Z,18.50
2023-10-05T17:07:57.551Z,18.50
2023-10-05T17:10:25.411Z,18.40
2023-10-05T17:12:52.981Z,18.20
2023-10-05T17:15:25.029Z,18.10
2023-10-05T17:17:54.333Z,18.00
2023-10-05T17:20:22.207Z,17.90
2023-10-05T17:22:53.733Z,17.80
2023-10-05T17:25:23.036Z,17.70
2023-10-05T17:27:50.125Z,17.60
2023-10-05T17:30:17.450Z,17.60
2023-10-05T17:32:47.386Z,17.50
2023-10-05T17:35:22.770Z,17.50
2023-10-05T17:37:50.699Z,17.40
2023-10-05T17:40:18.046Z,17.40
2023-10-05T17:42:44.967Z,17.40
2023-10-05T17:45:11.817Z,17.40
2023-10-05T17:47:38.714Z,17.40
2023-10-05T17:50:05.883Z,17.40
2023-10-05T17:52:33.440Z,17.40
2023-10-05T17:55:00.428Z,17.30
2023-10-05T17:57:27.250Z,17.30
2023-10-05T17:59:54.131Z,17.30
2023-10-05T18:02:21.307Z,17.30
2023-10-05T18:04:48.133Z,17.30
2023-10-05T18:07:14.896Z,17.30
2023-10-05T18:09:41.821Z,17.20
2023-10-05T18:12:09.016Z,17.20
2023-10-05T18:14:36.719Z,17.20
2023-10-05T18:17:05.997Z,17.20
2023-10-05T18:19:33.009Z,17.20
2023-10-05T18:21:59.753Z,17.20
2023-10-05T18:24:26.877Z,17.20
2023-10-05T18:26:53.729Z,17.20
2023-10-05T18:29:20.689Z,17.10
2023-10-05T18:31:47.673Z,17.10
2023-10-05T18:34:14.903Z,17.10
2023-10-05T18:36:42.412Z,17.00
2023-10-05T18:39:14.426Z,17.00
2023-10-05T18:41:41.823Z,17.00
2023-10-05T18:44:09.690Z,16.90
2023-10-05T18:46:37.091Z,16.80
2023-10-05T18:49:05.443Z,16.80
2023-10-05T18:51:32.212Z,16.70
2023-10-05T18:54:01.960Z,16.60
2023-10-05T18:56:30.152Z,16.60
2023-10-05T18:58:57.717Z,16.50
2023-10-05T19:01:25.748Z,16.40
2023-10-05T19:03:53.455Z,16.40
2023-10-05T19:06:21.741Z,16.30
2023-10-05T19:08:48.599Z,16.30
2023-10-05T19:11:16.905Z,16.30
2023-10-05T19:13:45.019Z,16.20
2023-10-05T19:16:12.169Z,16.20
2023-10-05T19:18:39.486Z,16.20
2023-10-05T19:21:11.666Z,16.20
2023-10-05T19:23:42.344Z,16.20
2023-10-05T19:26:09.337Z,16.10
2023-10-05T19:28:36.986Z,16.10
2023-10-05T19:31:04.707Z,16.10
2023-10-05T19:33:34.799Z,16.00
2023-10-05T19:36:02.717Z,16.00
2023-10-05T19:38:29.573Z,16.00
2023-10-05T19:40:56.568Z,16.00
2023-10-05T19:43:23.488Z,15.90
2023-10-05T19:45:50.641Z,15.90
2023-10-05T19:48:17.703Z,15.80
2023-10-05T19:50:44.961Z,15.80
2023-10-05T19:53:13.729Z,15.80
2023-10-05T19:55:41.052Z,15.80
2023-10-05T19:58:07.928Z,15.80
2023-10-05T20:00:34.751Z,15.80
2023-10-05T20:03:01.916Z,15.70
2023-10-05T20:05:29.917Z,15.60
2023-10-05T20:07:59.779Z,15.50
2023-10-05T20:10:30.868Z,15.50
2023-10-05T20:12:58.815Z,15.50
2023-10-05T20:15:25.892Z,15.40
2023-10-05T20:17:52.823Z,15.40
2023-10-05T20:20:21.351Z,15.40
2023-10-05T20:22:48.431Z,15.40
2023-10-05T20:25:15.230Z,15.30
2023-10-05T20:27:42.939Z,15.30
2023-10-05T20:30:12.897Z,15.30
2023-10-05T20:32:40.123Z,15.30
2023-10-05T20:35:08.454Z,15.30
2023-10-05T20:37:35.449Z,15.30
2023-10-05T20:40:04.618Z,15.20
2023-10-05T20:42:31.891Z,15.20
2023-10-05T20:45:00.754Z,15.20
2023-10-05T20:47:30.822Z,15.10
2023-10-05T20:49:58.042Z,15.10
2023-10-05T20:52:25.636Z,15.10
2023-10-05T20:54:58.775Z,15.10
2023-10-05T20:57:25.572Z,15.10
2023-10-05T20:59:53.970Z,15.10
2023-10-05T21:02:20.869Z,15.10
2023-10-05T21:04:47.750Z,15.10
2023-10-05T21:07:14.555Z,15.00
2023-10-05T21:09:41.571Z,15.00
2023-10-05T21:12:08.776Z,15.00
2023-10-05T21:14:35.470Z,15.00
2023-10-05T21:17:02.531Z,14.90
2023-10-05T21:19:29.375Z,14.90
2023-10-05T21:21:56.230Z,14.90
2023-10-05T21:24:23.076Z,14.80
2023-10-05T21:26:49.856Z,14.80
2023-10-05T21:29:16.646Z,14.80
2023-10-05T21:31:43.668Z,14.80
2023-10-05T21:34:10.437Z,14.80
2023-10-05T21:36:37.909Z,14.80
2023-10-05T21:39:05.048Z,14.80
2023-10-05T21:41:31.876Z,14.70
2023-10-05T21:43:59.476Z,14.70
2023-10-05T21:46:27.730Z,14.70
2023-10-05T21:48:54.898Z,14.70
2023-10-05T21:51:23.111Z,14.60
2023-10-05T21:53:50.004Z,14.60
2023-10-05T21:56:16.998Z,14.60
2023-10-05T21:58:43.923Z,14.60
2023-10-05T22:01:11.598Z,14.60
2023-10-05T22:03:39.245Z,14.60
2023-10-05T22:06:07.228Z,14.50
2023-10-05T22:08:34.159Z,14.50
2023-10-05T22:11:02.509Z,14.50
2023-10-05T22:13:29.659Z,14.40
2023-10-05T22:15:56.400Z,14.40
2023-10-05T22:18:23.245Z,14.30
2023-10-05T22:20:50.976Z,14.30
2023-10-05T22:23:17.951Z,14.30
2023-10-05T22:25:44.759Z,14.30
2023-10-05T22:28:11.663Z,14.30
2023-10-05T22:30:41.302Z,14.30
2023-10-05T22:33:10.454Z,14.30
2023-10-05T22:35:38.904Z,14.30
2023-10-05T22:38:06.070Z,14.30
2023-10-05T22:40:36.612Z,14.30
2023-10-05T22:43:03.744Z,14.30
2023-10-05T22:45:31.671Z,14.20
2023-10-05T22:47:58.536Z,14.20
2023-10-05T22:50:25.432Z,14.20
2023-10-05T22:52:52.370Z,14.20
2023-10-05T22:55:19.500Z,14.30
2023-10-05T22:57:46.492Z,14.20
2023-10-05T23:00:13.645Z,14.30
2023-10-05T23:02:40.708Z,14.20
2023-10-05T23:05:08.216Z,14.20
2023-10-05T23:07:35.411Z,14.20
2023-10-05T23:10:06.209Z,14.20
2023-10-05T23:12:34.534Z,14.10
2023-10-05T23:15:10.952Z,14.10
2023-10-05T23:17:38.172Z,14.10
2023-10-05T23:20:08.707Z,14.10
2023-10-05T23:22:41.803Z,14.10
2023-10-05T23:25:19.686Z,14.00
2023-10-05T23:27:48.320Z,14.00
2023-10-05T23:30:16.397Z,14.00
2023-10-05T23:32:47.874Z,14.00
2023-10-05T23:35:20.346Z,14.00
2023-10-05T23:37:53.715Z,14.00
2023-10-05T23:40:26.168Z,14.00
2023-10-05T23:42:53.970Z,14.00
2023-10-05T23:45:24.153Z,14.00
2023-10-05T23:47:55.532Z,13.90
2023-10-05T23:50:27.018Z,14.00
2023-10-05T23:52:59.543Z,13.90
2023-10-05T23:55:27.814Z,13.90
2023-10-05T23:57:55.621Z,13.90
